createdAt,value
2022-11-30T00:01:10.578Z,97317.50
2022-11-30T00:03:38.204Z,97313.13
2022-11-30T00:06:08.831Z,97308.66
2022-11-30T00:08:36.419Z,97313.44
2022-11-30T00:11:09.094Z,97312.22
2022-11-30T00:13:36.703Z,97304.25
2022-11-30T00:16:04.958Z,97312.59
2022-11-30T00:18:32.760Z,97314.97
2022-11-30T00:21:01.795Z,97312.53
2022-11-30T00:23:34.050Z,97310.78
2022-11-30T00:26:03.128Z,97320.81
2022-11-30T00:28:32.067Z,97323.84
2022-11-30T00:31:00.242Z,97327.84
2022-11-30T00:33:28.204Z,97324.91
2022-11-30T00:35:59.022Z,97325.31
2022-11-30T00:38:26.760Z,97325.91
2022-11-30T00:40:56.639Z,97321.63
2022-11-30T00:43:24.367Z,97325.06
2022-11-30T00:45:52.079Z,97328.88
2022-11-30T00:48:19.763Z,97324.09
2022-11-30T00:50:49.044Z,97327.13
2022-11-30T00:53:16.672Z,97327.22
2022-11-30T00:55:44.562Z,97327.38
2022-11-30T00:58:13.621Z,97333.53
2022-11-30T01:00:41.430Z,97338.75
2022-11-30T01:03:09.239Z,97334.59
2022-11-30T01:05:36.920Z,97335.56
2022-11-30T01:08:05.434Z,97333.41
2022-11-30T01:10:33.758Z,97324.38
2022-11-30T01:13:01.573Z,97331.50
2022-11-30T01:15:30.672Z,97329.72
2022-11-30T01:18:00.254Z,97328.56
2022-11-30T01:20:27.972Z,97329.72
2022-11-30T01:22:55.848Z,97335.19
2022-11-30T01:25:23.712Z,97341.13
2022-11-30T01:27:52.036Z,97336.72
2022-11-30T01:30:20.060Z,97336.47
2022-11-30T01:32:49.560Z,97346.66
2022-11-30T01:35:17.153Z,97337.91
2022-11-30T01:37:44.759Z,97333.59
2022-11-30T01:40:13.245Z,97334.91
2022-11-30T01:42:46.627Z,97334.03
2022-11-30T01:45:14.583Z,97337.69
2022-11-30T01:47:43.490Z,97336.50
2022-11-30T01:50:14.619Z,97341.38
2022-11-30T01:52:44.776Z,97344.94
2022-11-30T01:55:17.312Z,97347.28
2022-11-30T01:57:48.505Z,97343.28
2022-11-30T02:00:17.083Z,97347.44
2022-11-30T02:02:50.273Z,97348.13
2022-11-30T02:05:19.654Z,97349.22
2022-11-30T02:07:47.311Z,97346.09
2022-11-30T02:10:17.052Z,97356.44
2022-11-30T02:12:54.378Z,97339.91
2022-11-30T02:15:23.170Z,97351.72
2022-11-30T02:17:55.064Z,97352.06
2022-11-30T02:20:51.296Z,97351.00
2022-11-30T02:23:51.476Z,97347.84
2022-11-30T02:26:31.887Z,97347.00
2022-11-30T02:29:07.565Z,97347.41
2022-11-30T02:31:39.760Z,97348.72
2022-11-30T02:34:08.883Z,97355.97
2022-11-30T02:36:37.021Z,97357.63
2022-11-30T02:39:05.322Z,97359.16
2022-11-30T02:41:38.300Z,97359.72
2022-11-30T02:44:08.428Z,97361.44
2022-11-30T02:46:42.169Z,97361.78
2022-11-30T02:49:14.789Z,97362.34
2022-11-30T02:51:42.783Z,97362.59
2022-11-30T02:54:10.483Z,97357.88
2022-11-30T02:56:38.059Z,97350.88
2022-11-30T02:59:07.010Z,97348.41
2022-11-30T03:01:35.189Z,97349.47
2022-11-30T03:04:02.855Z,97352.78
2022-11-30T03:06:30.421Z,97357.53
2022-11-30T03:08:58.029Z,97354.94
2022-11-30T03:11:25.685Z,97356.50
2022-11-30T03:13:53.267Z,97367.63
2022-11-30T03:16:22.279Z,97367.41
2022-11-30T03:18:49.910Z,97366.97
2022-11-30T03:21:17.520Z,97365.16
2022-11-30T03:23:45.102Z,97371.69
2022-11-30T03:26:12.759Z,97368.13
2022-11-30T03:28:40.386Z,97377.63
2022-11-30T03:31:08.096Z,97380.84
2022-11-30T03:33:37.537Z,97385.59
2022-11-30T03:36:07.081Z,97384.63
2022-11-30T03:38:34.906Z,97385.84
2022-11-30T03:41:03.025Z,97388.44
2022-11-30T03:43:30.842Z,97383.31
2022-11-30T03:45:58.697Z,97384.41
2022-11-30T03:48:27.354Z,97385.22
2022-11-30T03:50:56.303Z,97387.03
2022-11-30T03:53:25.340Z,97381.59
2022-11-30T03:55:54.409Z,97386.56
2022-11-30T03:58:22.671Z,97389.41
2022-11-30T04:00:50.448Z,97394.00
2022-11-30T04:03:18.182Z,97383.72
2022-11-30T04:05:45.798Z,97389.41
2022-11-30T04:08:14.686Z,97397.09
2022-11-30T04:10:42.274Z,97392.81
2022-11-30T04:13:09.838Z,97390.56
2022-11-30T04:15:37.452Z,97395.78
2022-11-30T04:18:05.606Z,97389.72
2022-11-30T04:20:38.828Z,97381.19
2022-11-30T04:23:08.214Z,97375.50
2022-11-30T04:25:38.382Z,97380.63
2022-11-30T04:28:06.072Z,97378.13
2022-11-30T04:30:33.970Z,97394.97
2022-11-30T04:33:01.877Z,97386.69
2022-11-30T04:35:29.761Z,97387.25
2022-11-30T04:37:57.346Z,97382.28
2022-11-30T04:40:24.884Z,97385.84
2022-11-30T04:42:53.931Z,97383.34
2022-11-30T04:45:21.665Z,97385.03
2022-11-30T04:47:49.248Z,97382.97
2022-11-30T04:50:17.043Z,97386.91
2022-11-30T04:52:44.617Z,97395.09
2022-11-30T04:55:12.367Z,97397.44
2022-11-30T04:57:39.925Z,97385.72
2022-11-30T05:00:10.968Z,97387.84
2022-11-30T05:02:38.663Z,97397.34
2022-11-30T05:05:07.024Z,97389.75
2022-11-30T05:07:34.646Z,97388.34
2022-11-30T05:10:02.236Z,97388.91
2022-11-30T05:12:29.825Z,97393.41
2022-11-30T05:14:57.394Z,97390.00
2022-11-30T05:17:26.615Z,97394.25
2022-11-30T05:19:54.173Z,97395.94
2022-11-30T05:22:21.724Z,97393.19
2022-11-30T05:24:49.451Z,97390.00
2022-11-30T05:27:22.355Z,97390.47
2022-11-30T05:29:50.407Z,97389.16
2022-11-30T05:32:18.059Z,97391.53
2022-11-30T05:34:51.267Z,97391.75
2022-11-30T05:37:19.554Z,97394.16
2022-11-30T05:39:47.195Z,97399.47
2022-11-30T05:42:14.823Z,97397.22
2022-11-30T05:44:43.264Z,97402.44
2022-11-30T05:47:11.471Z,97400.16
2022-11-30T05:49:39.094Z,97405.38
2022-11-30T05:52:08.139Z,97412.66
2022-11-30T05:54:35.945Z,97412.41
2022-11-30T05:57:03.528Z,97407.53
2022-11-30T05:59:31.112Z,97417.53
2022-11-30T06:01:58.915Z,97419.19
2022-11-30T06:04:27.341Z,97410.97
2022-11-30T06:06:55.859Z,97416.31
2022-11-30T06:09:25.189Z,97418.22
2022-11-30T06:11:52.882Z,97414.78
2022-11-30T06:14:20.597Z,97408.72
2022-11-30T06:16:48.354Z,97406.09
2022-11-30T06:19:16.102Z,97411.31
2022-11-30T06:21:43.836Z,97409.41
2022-11-30T06:24:11.565Z,97418.31
2022-11-30T06:26:40.814Z,97411.31
2022-11-30T06:29:08.753Z,97416.09
2022-11-30T06:31:36.502Z,97415.38
2022-11-30T06:34:04.323Z,97407.91
2022-11-30T06:36:35.753Z,97420.13
2022-11-30T06:39:04.145Z,97415.13
2022-11-30T06:41:31.811Z,97415.84
2022-11-30T06:44:00.841Z,97419.88
2022-11-30T06:46:28.977Z,97428.88
2022-11-30T06:48:56.692Z,97422.59
2022-11-30T06:51:24.872Z,97423.19
2022-11-30T06:53:52.648Z,97433.41
2022-11-30T06:56:21.105Z,97424.53
2022-11-30T06:58:48.843Z,97427.94
2022-11-30T07:01:18.556Z,97429.03
2022-11-30T07:03:46.361Z,97435.78
2022-11-30T07:06:16.554Z,97433.78
2022-11-30T07:08:44.906Z,97448.59
2022-11-30T07:11:13.715Z,97444.69
2022-11-30T07:13:41.270Z,97433.66
2022-11-30T07:16:14.572Z,97435.19
2022-11-30T07:18:43.538Z,97437.56
2022-11-30T07:21:11.769Z,97442.44
2022-11-30T07:23:57.411Z,97441.47
2022-11-30T07:26:25.826Z,97440.06
2022-11-30T07:28:58.174Z,97426.88
2022-11-30T07:31:27.588Z,97438.97
2022-11-30T07:33:57.255Z,97440.78
2022-11-30T07:36:29.559Z,97446.09
2022-11-30T07:38:57.182Z,97444.34
2022-11-30T07:41:24.775Z,97436.50
2022-11-30T07:43:52.360Z,97442.91
2022-11-30T07:46:20.306Z,97447.28
2022-11-30T07:48:47.923Z,97450.97
2022-11-30T07:51:18.839Z,97446.94
2022-11-30T07:53:46.804Z,97455.00
2022-11-30T07:56:16.295Z,97445.03
2022-11-30T07:58:44.027Z,97460.22
2022-11-30T08:01:13.624Z,97458.31
2022-11-30T08:03:41.546Z,97462.81
2022-11-30T08:06:11.568Z,97456.06
2022-11-30T08:08:41.766Z,97456.91
2022-11-30T08:11:11.038Z,97455.59
2022-11-30T08:13:38.637Z,97457.38
2022-11-30T08:16:08.384Z,97463.06
2022-11-30T08:18:36.366Z,97464.63
2022-11-30T08:21:06.604Z,97465.09
2022-11-30T08:23:36.878Z,97467.22
2022-11-30T08:26:07.254Z,97466.16
2022-11-30T08:28:36.027Z,97471.97
2022-11-30T08:31:04.876Z,97472.66
2022-11-30T08:33:33.227Z,97475.53
2022-11-30T08:36:07.411Z,97474.22
2022-11-30T08:38:35.129Z,97479.66
2022-11-30T08:41:03.070Z,97474.72
2022-11-30T08:43:32.323Z,97481.94
2022-11-30T08:46:00.151Z,97473.41
2022-11-30T08:48:27.959Z,97476.25
2022-11-30T08:50:55.664Z,97477.53
2022-11-30T08:53:23.563Z,97470.28
2022-11-30T08:55:57.104Z,97472.31
2022-11-30T08:58:24.989Z,97478.25
2022-11-30T09:00:54.209Z,97476.59
2022-11-30T09:03:22.411Z,97482.06
2022-11-30T09:05:50.115Z,97482.88
2022-11-30T09:08:17.856Z,97490.81
2022-11-30T09:10:45.600Z,97495.56
2022-11-30T09:13:13.296Z,97492.97
2022-11-30T09:15:42.514Z,97498.19
2022-11-30T09:18:14.011Z,97494.59
2022-11-30T09:20:42.106Z,97500.78
2022-11-30T09:23:09.656Z,97495.44
2022-11-30T09:25:37.230Z,97507.81
2022-11-30T09:28:09.297Z,97497.31
2022-11-30T09:30:39.720Z,97494.81
2022-11-30T09:33:07.389Z,97505.97
2022-11-30T09:35:36.504Z,97498.03
2022-11-30T09:38:05.068Z,97497.78
2022-11-30T09:40:35.627Z,97492.56
2022-11-30T09:43:07.892Z,97489.97
2022-11-30T09:45:36.086Z,97491.88
2022-11-30T09:48:21.846Z,97488.06
2022-11-30T09:50:51.384Z,97488.44
2022-11-30T09:53:28.941Z,97482.63
2022-11-30T09:55:57.151Z,97490.47
2022-11-30T09:58:31.341Z,97492.06
2022-11-30T10:01:01.315Z,97482.66
2022-11-30T10:03:32.802Z,97477.31
2022-11-30T10:06:06.646Z,97484.94
2022-11-30T10:08:50.199Z,97474.84
2022-11-30T10:11:31.953Z,97478.81
2022-11-30T10:14:15.712Z,97472.97
2022-11-30T10:16:49.900Z,97473.78
2022-11-30T10:19:26.355Z,97465.66
2022-11-30T10:22:04.862Z,97466.06
2022-11-30T10:24:53.382Z,97471.22
2022-11-30T10:27:32.984Z,97468.63
2022-11-30T10:30:01.475Z,97464.03
2022-11-30T10:32:33.443Z,97464.84
2022-11-30T10:35:12.540Z,97462.44
2022-11-30T10:37:42.438Z,97460.88
2022-11-30T10:40:14.520Z,97463.44
2022-11-30T10:42:44.622Z,97468.63
2022-11-30T10:45:13.922Z,97461.53
2022-11-30T10:47:46.113Z,97475.09
2022-11-30T10:50:16.567Z,97463.34
2022-11-30T10:52:48.617Z,97467.16
2022-11-30T10:55:19.241Z,97461.53
2022-11-30T10:57:48.286Z,97461.81
2022-11-30T11:00:18.208Z,97465.16
2022-11-30T11:02:48.002Z,97460.03
2022-11-30T11:05:21.382Z,97460.56
2022-11-30T11:07:53.184Z,97454.88
2022-11-30T11:10:22.919Z,97449.91
2022-11-30T11:12:52.286Z,97455.13
2022-11-30T11:15:21.971Z,97457.25
2022-11-30T11:17:49.737Z,97456.13
2022-11-30T11:20:30.325Z,97458.41
2022-11-30T11:22:59.467Z,97461.06
2022-11-30T11:25:32.803Z,97454.63
2022-11-30T11:28:05.633Z,97447.16
2022-11-30T11:30:34.214Z,97455.34
2022-11-30T11:33:03.532Z,97445.59
2022-11-30T11:35:37.606Z,97444.09
2022-11-30T11:38:20.211Z,97435.34
2022-11-30T11:41:12.336Z,97443.94
2022-11-30T11:43:57.978Z,97439.94
2022-11-30T11:46:25.925Z,97436.50
2022-11-30T11:48:59.571Z,97440.53
2022-11-30T11:51:32.436Z,97443.84
2022-11-30T11:54:04.260Z,97438.16
2022-11-30T11:56:33.946Z,97439.47
2022-11-30T11:59:03.565Z,97444.19
2022-11-30T12:01:42.375Z,97438.34
2022-11-30T12:04:45.460Z,97442.88
2022-11-30T12:07:20.526Z,97443.81
2022-11-30T12:10:21.866Z,97447.63
2022-11-30T12:12:55.091Z,97456.16
2022-11-30T12:15:28.103Z,97460.44
2022-11-30T12:18:02.429Z,97454.72
2022-11-30T12:20:37.255Z,97455.69
2022-11-30T12:23:16.645Z,97446.41
2022-11-30T12:25:51.992Z,97462.19
2022-11-30T12:28:26.804Z,97453.69
2022-11-30T12:31:02.878Z,97458.84
2022-11-30T12:33:43.180Z,97445.41
2022-11-30T12:36:17.018Z,97435.69
2022-11-30T12:38:49.601Z,97443.19
2022-11-30T12:41:30.658Z,97453.16
2022-11-30T12:44:06.403Z,97450.31
2022-11-30T12:46:37.203Z,97458.50
2022-11-30T12:49:24.780Z,97447.25
2022-11-30T12:51:56.790Z,97458.41
2022-11-30T12:54:31.961Z,97462.34
2022-11-30T12:57:07.577Z,97461.38
2022-11-30T12:59:41.633Z,97461.28
2022-11-30T13:02:31.925Z,97464.59
2022-11-30T13:05:02.856Z,97460.91
2022-11-30T13:07:33.509Z,97465.66
2022-11-30T13:10:06.071Z,97467.06
2022-11-30T13:12:36.843Z,97462.56
2022-11-30T13:15:11.084Z,97460.69
2022-11-30T13:17:43.530Z,97458.19
2022-11-30T13:20:19.623Z,97455.91
2022-11-30T13:22:51.233Z,97451.09
2022-11-30T13:25:59.416Z,97453.66
2022-11-30T13:28:17.408Z,97457.13
2022-11-30T13:30:50.119Z,97457.69
2022-11-30T13:33:40.350Z,97458.06
2022-11-30T13:36:22.256Z,97460.19
2022-11-30T13:39:10.186Z,97455.22
2022-11-30T13:41:38.892Z,97461.72
2022-11-30T13:44:23.473Z,97461.38
2022-11-30T13:46:53.060Z,97464.47
2022-11-30T13:49:23.210Z,97458.66
2022-11-30T13:52:20.042Z,97456.91
2022-11-30T13:54:40.892Z,97458.56
2022-11-30T13:57:18.502Z,97460.47
2022-11-30T13:59:49.349Z,97462.84
2022-11-30T14:03:00.188Z,97468.88
2022-11-30T14:05:39.183Z,97467.34
2022-11-30T14:08:34.931Z,97463.31
2022-11-30T14:11:37.674Z,97467.22
2022-11-30T14:14:46.577Z,97472.34
2022-11-30T14:17:24.454Z,97473.41
2022-11-30T14:19:54.361Z,97478.28
2022-11-30T14:22:22.203Z,97480.50
2022-11-30T14:24:50.563Z,97489.91
2022-11-30T14:27:20.845Z,97484.56
2022-11-30T14:29:53.385Z,97490.03
2022-11-30T14:32:29.240Z,97485.75
2022-11-30T14:35:03.372Z,97491.53
2022-11-30T14:37:34.064Z,97493.56
2022-11-30T14:40:03.929Z,97493.19
2022-11-30T14:42:32.624Z,97496.53
2022-11-30T14:45:00.406Z,97493.69
2022-11-30T14:47:31.110Z,97494.38
2022-11-30T14:50:02.515Z,97506.00
2022-11-30T14:52:46.156Z,97498.28
2022-11-30T14:55:19.916Z,97503.50
2022-11-30T14:57:52.643Z,97497.13
2022-11-30T15:00:22.244Z,97502.09
2022-11-30T15:02:51.235Z,97498.41
2022-11-30T15:05:22.548Z,97501.34
2022-11-30T15:07:50.608Z,97494.00
2022-11-30T15:10:29.504Z,97497.56
2022-11-30T15:12:57.784Z,97494.97
2022-11-30T15:15:27.801Z,97497.47
2022-11-30T15:17:58.641Z,97499.22
2022-11-30T15:20:29.721Z,97492.69
2022-11-30T15:23:01.349Z,97504.53
2022-11-30T15:25:32.962Z,97499.78
2022-11-30T15:28:00.871Z,97500.72
2022-11-30T15:30:28.894Z,97495.84
2022-11-30T15:32:58.620Z,97497.63
2022-11-30T15:35:43.667Z,97499.78
2022-11-30T15:38:23.483Z,97495.19
2022-11-30T15:40:54.556Z,97495.88
2022-11-30T15:43:25.813Z,97492.78
2022-11-30T15:45:55.774Z,97495.84
2022-11-30T15:48:33.055Z,97494.06
2022-11-30T15:51:01.839Z,97498.91
2022-11-30T15:53:34.932Z,97489.19
2022-11-30T15:56:07.193Z,97497.38
2022-11-30T15:58:39.916Z,97495.00
2022-11-30T16:01:11.024Z,97491.31
2022-11-30T16:04:04.724Z,97491.31
2022-11-30T16:06:35.439Z,97490.97
2022-11-30T16:09:13.830Z,97502.47
2022-11-30T16:11:41.470Z,97490.97
2022-11-30T16:14:11.008Z,97494.63
2022-11-30T16:16:38.778Z,97490.00
2022-11-30T16:19:07.811Z,97496.53
2022-11-30T16:21:35.579Z,97497.59
2022-11-30T16:24:03.665Z,97495.94
2022-11-30T16:29:18.999Z,97499.09
2022-11-30T16:31:46.761Z,97498.56
2022-11-30T16:34:15.825Z,97499.72
2022-11-30T16:36:43.551Z,97505.97
2022-11-30T16:39:13.327Z,97500.16
2022-11-30T16:41:41.124Z,97501.00
2022-11-30T16:44:13.651Z,97503.00
2022-11-30T16:46:41.338Z,97510.09
2022-11-30T16:49:09.215Z,97508.56
2022-11-30T16:51:38.506Z,97510.00
2022-11-30T16:54:06.660Z,97511.66
2022-11-30T16:56:34.557Z,97510.66
2022-11-30T16:59:03.384Z,97522.84
2022-11-30T17:01:36.133Z,97516.53
2022-11-30T17:04:07.149Z,97517.25
2022-11-30T17:06:34.852Z,97516.53
2022-11-30T17:09:03.925Z,97514.78
2022-11-30T17:11:33.694Z,97509.88
2022-11-30T17:14:03.741Z,97509.16
2022-11-30T17:16:31.516Z,97512.38
2022-11-30T17:18:59.915Z,97514.06
2022-11-30T17:21:29.489Z,97519.13
2022-11-30T17:23:57.739Z,97521.41
2022-11-30T17:26:27.114Z,97519.63
2022-11-30T17:28:54.887Z,97529.84
2022-11-30T17:31:22.753Z,97524.75
2022-11-30T17:33:50.827Z,97532.34
2022-11-30T17:36:20.173Z,97529.50
2022-11-30T17:38:47.914Z,97530.69
2022-11-30T17:41:19.190Z,97527.03
2022-11-30T17:43:49.386Z,97535.63
2022-11-30T17:46:19.127Z,97533.84
2022-11-30T17:48:47.049Z,97527.34
2022-11-30T17:51:14.991Z,97528.28
2022-11-30T17:53:44.227Z,97538.00
2022-11-30T17:56:13.938Z,97531.84
2022-11-30T17:58:44.197Z,97529.56
2022-11-30T18:01:17.720Z,97535.84
2022-11-30T18:03:45.760Z,97527.31
2022-11-30T18:06:13.648Z,97535.13
2022-11-30T18:08:41.438Z,97534.28
2022-11-30T18:11:10.238Z,97536.66
2022-11-30T18:13:38.122Z,97529.91
2022-11-30T18:16:10.684Z,97534.19
2022-11-30T18:18:45.746Z,97537.72
2022-11-30T18:21:16.589Z,97540.44
2022-11-30T18:23:44.150Z,97543.97
2022-11-30T18:26:13.466Z,97539.50
2022-11-30T18:28:41.022Z,97544.38
2022-11-30T18:31:08.602Z,97544.16
2022-11-30T18:33:36.224Z,97544.88
2022-11-30T18:36:07.599Z,97551.97
2022-11-30T18:38:38.076Z,97555.09
2022-11-30T18:41:06.540Z,97556.44
2022-11-30T18:43:34.354Z,97555.09
2022-11-30T18:46:03.936Z,97557.59
2022-11-30T18:48:31.626Z,97551.03
2022-11-30T18:50:59.204Z,97559.81
2022-11-30T18:53:28.137Z,97563.94
2022-11-30T18:55:55.761Z,97563.41
2022-11-30T18:58:23.375Z,97562.28
2022-11-30T19:00:50.919Z,97557.19
2022-11-30T19:03:18.534Z,97553.28
2022-11-30T19:05:46.058Z,97561.56
2022-11-30T19:08:15.544Z,97551.34
2022-11-30T19:10:44.448Z,97563.78
2022-11-30T19:13:11.995Z,97557.22
2022-11-30T19:15:39.967Z,97559.00
2022-11-30T19:18:08.488Z,97561.09
2022-11-30T19:20:39.212Z,97560.28
2022-11-30T19:23:06.875Z,97561.22
2022-11-30T19:25:34.427Z,97557.16
2022-11-30T19:28:07.500Z,97557.91
2022-11-30T19:30:35.124Z,97566.66
2022-11-30T19:33:02.742Z,97569.13
2022-11-30T19:35:30.313Z,97561.03
2022-11-30T19:38:02.577Z,97558.94
2022-11-30T19:40:30.110Z,97561.88
2022-11-30T19:42:57.636Z,97565.53
2022-11-30T19:45:26.552Z,97562.81
2022-11-30T19:47:54.114Z,97558.66
2022-11-30T19:50:22.081Z,97561.88
2022-11-30T19:52:50.039Z,97562.06
2022-11-30T19:55:17.757Z,97567.28
2022-11-30T19:57:45.723Z,97557.50
2022-11-30T20:00:15.105Z,97557.72
2022-11-30T20:02:44.198Z,97559.16
2022-11-30T20:05:11.796Z,97564.16
2022-11-30T20:07:39.507Z,97566.03
2022-11-30T20:10:09.988Z,97556.84
2022-11-30T20:12:37.687Z,97560.31
2022-11-30T20:15:05.903Z,97563.53
2022-11-30T20:17:33.591Z,97560.81
2022-11-30T20:20:02.622Z,97560.38
2022-11-30T20:22:30.481Z,97565.72
2022-11-30T20:24:58.158Z,97562.69
2022-11-30T20:27:25.848Z,97571.22
2022-11-30T20:29:53.830Z,97569.34
2022-11-30T20:32:21.563Z,97568.53
2022-11-30T20:34:49.548Z,97566.97
2022-11-30T20:37:19.096Z,97566.25
2022-11-30T20:39:46.755Z,97559.59
2022-11-30T20:42:15.974Z,97568.34
2022-11-30T20:44:43.681Z,97570.50
2022-11-30T20:47:11.593Z,97562.91
2022-11-30T20:49:39.340Z,97570.94
2022-11-30T20:52:07.107Z,97566.69
2022-11-30T20:54:36.196Z,97567.41
2022-11-30T20:57:04.102Z,97574.28
2022-11-30T20:59:31.863Z,97582.00
2022-11-30T21:02:00.190Z,97575.22
2022-11-30T21:04:28.284Z,97593.56
2022-11-30T21:06:56.251Z,97592.72
2022-11-30T21:09:23.920Z,97591.56
2022-11-30T21:11:53.020Z,97577.09
2022-11-30T21:14:20.726Z,97586.78
2022-11-30T21:16:48.396Z,97582.53
2022-11-30T21:19:16.898Z,97584.28
2022-11-30T21:21:44.580Z,97591.59
2022-11-30T21:24:12.735Z,97591.28
2022-11-30T21:26:42.036Z,97589.19
2022-11-30T21:29:13.814Z,97590.44
2022-11-30T21:31:41.632Z,97587.75
2022-11-30T21:34:09.507Z,97590.13
2022-11-30T21:36:37.291Z,97586.59
2022-11-30T21:39:07.393Z,97589.44
2022-11-30T21:41:35.846Z,97583.41
2022-11-30T21:44:04.055Z,97595.56
2022-11-30T21:46:33.480Z,97590.50
2022-11-30T21:49:01.395Z,97588.41
2022-11-30T21:51:30.354Z,97593.47
2022-11-30T21:54:00.075Z,97593.09
2022-11-30T21:56:29.487Z,97584.84
2022-11-30T21:58:58.019Z,97584.44
2022-11-30T22:01:27.872Z,97585.47
2022-11-30T22:03:58.042Z,97592.13
2022-11-30T22:06:26.852Z,97596.09
2022-11-30T22:08:54.605Z,97595.78
2022-11-30T22:11:23.230Z,97597.84
2022-11-30T22:13:51.746Z,97604.81
2022-11-30T22:16:20.116Z,97603.94
2022-11-30T22:18:48.494Z,97603.88
2022-11-30T22:21:18.981Z,97607.63
2022-11-30T22:23:49.214Z,97607.94
2022-11-30T22:26:18.462Z,97602.53
2022-11-30T22:28:47.849Z,97608.91
2022-11-30T22:31:17.237Z,97599.63
2022-11-30T22:33:46.259Z,97602.75
2022-11-30T22:36:15.510Z,97603.50
2022-11-30T22:38:45.030Z,97599.00
2022-11-30T22:41:14.270Z,97603.50
2022-11-30T22:43:42.403Z,97610.88
2022-11-30T22:46:12.672Z,97608.28
2022-11-30T22:48:40.823Z,97601.41
2022-11-30T22:51:10.789Z,97607.13
2022-11-30T22:53:39.618Z,97600.19
2022-11-30T22:56:11.803Z,97601.41
2022-11-30T22:58:39.912Z,97593.81
2022-11-30T23:01:11.925Z,97595.47
2022-11-30T23:03:40.734Z,97584.44
2022-11-30T23:06:18.674Z,97581.22
2022-11-30T23:08:47.127Z,97580.59
2022-11-30T23:11:18.517Z,97588.38
2022-11-30T23:13:46.614Z,97573.38
2022-11-30T23:16:15.259Z,97580.88
2022-11-30T23:18:44.531Z,97571.28
2022-11-30T23:21:14.382Z,97581.34
2022-11-30T23:23:42.485Z,97572.91
2022-11-30T23:26:11.369Z,97563.09
2022-11-30T23:28:41.909Z,97562.47
2022-11-30T23:31:10.558Z,97560.88
2022-11-30T23:33:58.145Z,97562.94
2022-11-30T23:36:26.163Z,97557.41
2022-11-30T23:38:57.227Z,97546.50
2022-11-30T23:41:25.824Z,97555.63
2022-11-30T23:43:55.860Z,97546.19
2022-11-30T23:46:23.887Z,97552.81
2022-11-30T23:48:51.807Z,97554.78
2022-11-30T23:51:19.744Z,97560.28
2022-11-30T23:53:47.522Z,97567.16
2022-11-30T23:56:16.643Z,97555.91
2022-11-30T23:58:44.409Z,97556.28
